Time;durP1;ratioP1;P1;durP2;ratioP2;P2;SDS_P1;SDS_P2;PMS_P1;PMS_P2;Temp;Humidity;BMP_temperature;BMP_pressure;BME280_temperature;BME280_humidity;BME280_pressure;Samples;Min_cycle;Max_cycle;Signal;HPM_P1;HPM_P2
2024/01/06 00:01:13;;;;;;;24.90;16.03;;;;;;;9.09;86.55;99433.28;5011706;28;20696;-71
2024/01/06 00:03:39;;;;;;;26.93;16.00;;;;;;;9.11;86.39;99428.66;5011703;28;20575;-71
2024/01/06 00:06:07;;;;;;;24.73;15.37;;;;;;;9.12;85.79;99420.50;5011144;28;20252;-70
2024/01/06 00:08:33;;;;;;;31.50;16.47;;;;;;;9.19;86.42;99415.28;5011704;28;20275;-71
2024/01/06 00:11:02;;;;;;;25.97;17.60;;;;;;;9.13;86.14;99402.75;5011589;28;20195;-71
2024/01/06 00:13:29;;;;;;;26.40;17.63;;;;;;;9.18;85.79;99413.59;5011681;28;20324;-71
2024/01/06 00:15:57;;;;;;;27.80;18.67;;;;;;;9.24;85.78;99421.63;5011855;28;20198;-71
2024/01/06 00:18:24;;;;;;;33.40;20.83;;;;;;;9.31;85.66;99416.41;5011869;28;20201;-72
2024/01/06 00:20:51;;;;;;;41.77;20.90;;;;;;;9.36;85.49;99420.09;5011477;28;20700;-72
2024/01/06 00:23:17;;;;;;;40.60;23.87;;;;;;;9.40;84.66;99431.16;5011846;28;20194;-71
2024/01/06 00:25:44;;;;;;;45.60;28.63;;;;;;;9.46;84.68;99439.19;5011531;28;20658;-71
2024/01/06 00:28:11;;;;;;;40.47;26.13;;;;;;;9.49;84.33;99443.28;5011410;28;20229;-71
2024/01/06 00:30:37;;;;;;;39.23;24.50;;;;;;;9.53;83.97;99444.53;5011662;28;20229;-71
2024/01/06 00:33:05;;;;;;;47.57;29.83;;;;;;;9.54;83.67;99438.22;5011377;28;20243;-71
2024/01/06 00:35:32;;;;;;;47.77;28.07;;;;;;;9.44;83.25;99443.03;5011686;28;20236;-71
2024/01/06 00:38:00;;;;;;;37.80;24.03;;;;;;;9.40;84.08;99436.47;5024015;28;20644;-69
2024/01/06 00:40:27;;;;;;;39.07;24.53;;;;;;;9.30;84.52;99433.31;5031286;28;20193;-71
2024/01/06 00:42:53;;;;;;;39.37;25.13;;;;;;;9.15;84.93;99432.56;5031432;28;20255;-69
2024/01/06 00:45:20;;;;;;;42.13;26.13;;;;;;;8.90;85.30;99420.69;5031481;28;20255;-70
2024/01/06 00:47:47;;;;;;;36.70;23.47;;;;;;;8.65;87.24;99411.38;5030986;28;20577;-71
2024/01/06 00:50:16;;;;;;;42.03;26.73;;;;;;;8.54;88.05;99401.31;5031213;28;20284;-71
2024/01/06 00:52:43;;;;;;;47.20;25.33;;;;;;;8.67;88.22;99404.09;5031321;28;20193;-71
2024/01/06 00:55:10;;;;;;;56.47;27.83;;;;;;;8.65;87.42;99390.22;5030950;28;20193;-69
2024/01/06 00:57:37;;;;;;;44.53;27.23;;;;;;;8.63;88.49;99400.19;5031299;28;20357;-70
2024/01/06 01:00:05;;;;;;;45.43;27.57;;;;;;;8.72;88.55;99410.47;5030936;28;20689;-72
2024/01/06 01:02:32;;;;;;;45.57;26.77;;;;;;;8.77;88.96;99415.19;5030756;28;20661;-72
2024/01/06 01:04:59;;;;;;;47.60;26.83;;;;;;;8.61;88.41;99397.72;5031235;28;20209;-72
2024/01/06 01:07:27;;;;;;;41.70;26.20;;;;;;;8.68;88.56;99409.22;5030755;28;20680;-72
2024/01/06 01:09:54;;;;;;;49.20;29.07;;;;;;;8.72;88.86;99409.66;5030826;28;20700;-72
2024/01/06 01:12:20;;;;;;;43.90;26.50;;;;;;;8.77;88.66;99407.25;5030737;28;20224;-72
2024/01/06 01:14:47;;;;;;;46.93;26.60;;;;;;;8.77;88.54;99396.66;5030856;28;20197;-72
2024/01/06 01:17:14;;;;;;;47.50;26.37;;;;;;;8.74;88.32;99379.31;5032835;28;20225;-72
2024/01/06 01:19:40;;;;;;;50.17;27.73;;;;;;;8.37;88.79;99378.69;5034652;28;20201;-72
2024/01/06 01:22:07;;;;;;;42.13;26.57;;;;;;;8.30;89.40;99372.50;5034592;28;20197;-71
2024/01/06 01:24:35;;;;;;;43.50;26.33;;;;;;;8.42;90.10;99381.59;5034317;28;20664;-71
2024/01/06 01:27:02;;;;;;;38.93;26.73;;;;;;;8.48;89.37;99370.25;5034132;28;20631;-72
2024/01/06 01:29:28;;;;;;;43.53;26.93;;;;;;;8.55;89.21;99384.41;5034307;28;20240;-71
2024/01/06 01:31:54;;;;;;;44.73;26.47;;;;;;;8.60;89.24;99395.25;5034419;28;20262;-72
2024/01/06 01:34:21;;;;;;;46.13;27.50;;;;;;;8.60;89.05;99401.38;5034464;28;20193;-72
2024/01/06 01:36:48;;;;;;;38.47;25.70;;;;;;;8.62;88.50;99382.66;5031443;28;20197;-72
2024/01/06 01:39:14;;;;;;;46.77;28.53;;;;;;;8.63;88.57;99389.59;5014208;28;20657;-72
2024/01/06 01:41:42;;;;;;;40.77;26.70;;;;;;;8.67;88.79;99391.69;5014555;28;20194;-71
2024/01/06 01:44:09;;;;;;;42.63;26.00;;;;;;;8.71;88.58;99392.13;5014493;28;20217;-72
2024/01/06 01:46:37;;;;;;;43.07;27.67;;;;;;;8.73;88.01;99390.09;5014084;28;20247;-72
2024/01/06 01:49:05;;;;;;;47.60;27.50;;;;;;;8.66;86.81;99413.06;5014281;28;20226;-72
2024/01/06 01:51:34;;;;;;;46.50;28.13;;;;;;;8.51;87.71;99399.00;5014013;28;20252;-72
2024/01/06 01:54:02;;;;;;;43.23;27.73;;;;;;;8.47;87.87;99387.16;5013959;28;20728;-73
2024/01/06 01:56:33;;;;;;;45.07;26.87;;;;;;;8.38;88.44;99383.78;5014190;28;20293;-72
2024/01/06 01:59:06;;;;;;;50.00;28.23;;;;;;;8.47;88.72;99400.38;5014249;28;20194;-72
2024/01/06 02:01:33;;;;;;;40.00;26.80;;;;;;;8.40;88.34;99387.06;5017348;28;20208;-72
2024/01/06 02:04:00;;;;;;;43.60;25.20;;;;;;;8.25;87.49;99388.09;5031920;28;20725;-71
2024/01/06 02:06:27;;;;;;;41.27;24.70;;;;;;;8.17;89.00;99393.47;5033536;28;20193;-72
2024/01/06 02:08:54;;;;;;;45.30;26.13;;;;;;;8.17;89.71;99373.09;5033518;28;20243;-72
2024/01/06 02:11:21;;;;;;;37.30;23.27;;;;;;;8.26;89.25;99380.00;5033517;28;20212;-71
2024/01/06 02:13:47;;;;;;;36.17;23.20;;;;;;;8.24;89.15;99373.22;5033049;28;20193;-71
2024/01/06 02:16:15;;;;;;;36.37;23.20;;;;;;;8.21;88.83;99368.31;5033367;28;20193;-72
2024/01/06 02:18:42;;;;;;;34.13;22.67;;;;;;;8.25;88.32;99354.50;5033108;28;20629;-71
2024/01/06 02:21:10;;;;;;;35.93;22.43;;;;;;;8.28;87.91;99348.03;5033069;28;20283;-71
2024/01/06 02:23:38;;;;;;;34.87;21.50;;;;;;;8.25;87.79;99361.66;5033093;28;20201;-74
2024/01/06 02:26:05;;;;;;;34.67;21.53;;;;;;;8.16;88.68;99366.16;5033239;28;20197;-76
2024/01/06 02:28:32;;;;;;;33.70;19.40;;;;;;;8.18;88.80;99360.69;5031867;28;20246;-75
2024/01/06 02:30:58;;;;;;;28.93;19.33;;;;;;;8.08;88.76;99373.41;5033082;28;20216;-74
2024/01/06 02:33:25;;;;;;;31.80;20.50;;;;;;;8.02;89.49;99374.13;5033232;28;20260;-73
2024/01/06 02:35:52;;;;;;;31.10;20.77;;;;;;;8.01;89.49;99367.19;5033270;28;20189;-73
2024/01/06 02:38:18;;;;;;;28.27;18.97;;;;;;;8.06;88.94;99370.94;5032944;28;20215;-71
2024/01/06 02:40:46;;;;;;;30.57;19.33;;;;;;;8.00;89.64;99360.28;5032984;28;20620;-72
2024/01/06 02:43:13;;;;;;;31.50;20.17;;;;;;;8.00;89.59;99354.97;5032751;28;20197;-72
2024/01/06 02:45:40;;;;;;;29.63;18.27;;;;;;;7.97;89.49;99360.63;5032440;28;20668;-72
2024/01/06 02:48:07;;;;;;;30.97;19.37;;;;;;;7.92;89.98;99350.59;5032977;28;20193;-72
2024/01/06 02:50:34;;;;;;;24.90;18.27;;;;;;;7.96;90.42;99359.00;5032664;28;20697;-72
2024/01/06 02:53:01;;;;;;;25.20;18.20;;;;;;;7.87;89.81;99365.34;5032915;28;20200;-72
2024/01/06 02:55:27;;;;;;;26.63;17.80;;;;;;;7.81;89.95;99364.28;5032547;28;20243;-70
2024/01/06 02:57:55;;;;;;;30.13;19.23;;;;;;;7.75;90.56;99356.22;5032801;28;20201;-71
2024/01/06 03:00:22;;;;;;;31.30;20.17;;;;;;;7.83;91.34;99370.19;5032532;28;20193;-71
2024/01/06 03:02:49;;;;;;;31.97;19.63;;;;;;;7.83;91.11;99358.78;5032760;28;20557;-71
2024/01/06 03:05:16;;;;;;;32.10;19.73;;;;;;;7.82;90.17;99362.44;5032390;28;20571;-72
2024/01/06 03:07:44;;;;;;;33.57;20.13;;;;;;;7.80;90.38;99364.44;5032569;28;20672;-72
2024/01/06 03:10:11;;;;;;;32.23;19.67;;;;;;;7.82;90.01;99363.28;5032231;28;20235;-70
2024/01/06 03:12:37;;;;;;;29.57;20.07;;;;;;;7.79;90.73;99358.34;5032164;28;20547;-71
2024/01/06 03:15:06;;;;;;;35.33;20.40;;;;;;;7.67;89.97;99343.91;5032220;28;20196;-71
2024/01/06 03:17:33;;;;;;;26.93;18.70;;;;;;;7.69;91.49;99349.88;5032416;28;20209;-72
2024/01/06 03:20:00;;;;;;;29.13;18.83;;;;;;;7.76;90.78;99347.31;5032131;28;20682;-72
2024/01/06 03:22:27;;;;;;;31.80;20.70;;;;;;;7.70;90.91;99340.09;5032051;28;20223;-72
2024/01/06 03:24:53;;;;;;;33.03;19.63;;;;;;;7.76;90.88;99336.75;5032067;28;20668;-72
2024/01/06 03:27:20;;;;;;;33.60;19.53;;;;;;;7.82;90.93;99336.00;5031824;28;20208;-72
2024/01/06 03:29:47;;;;;;;31.53;20.67;;;;;;;7.86;89.88;99337.28;5032218;28;20314;-72
2024/01/06 03:32:15;;;;;;;32.00;20.60;;;;;;;7.86;89.98;99329.34;5032207;28;20235;-71
2024/01/06 03:34:42;;;;;;;30.00;19.60;;;;;;;7.90;90.83;99333.25;5032177;28;20243;-71
2024/01/06 03:37:09;;;;;;;28.40;19.80;;;;;;;7.91;89.96;99345.47;5032321;28;20190;-72
2024/01/06 03:39:36;;;;;;;32.93;20.53;;;;;;;7.86;89.99;99329.34;5031906;28;20193;-72
2024/01/06 03:42:03;;;;;;;28.97;19.93;;;;;;;7.97;89.66;99345.56;5031815;28;20251;-71
2024/01/06 03:44:30;;;;;;;31.27;19.50;;;;;;;7.98;89.84;99341.09;5032183;28;20524;-72
2024/01/06 03:46:57;;;;;;;34.27;19.60;;;;;;;8.03;89.56;99344.00;5032015;28;20243;-72
2024/01/06 03:49:27;;;;;;;29.30;18.63;;;;;;;8.04;88.95;99335.09;5031517;28;20715;-72
2024/01/06 03:51:53;;;;;;;30.97;20.57;;;;;;;8.07;89.51;99337.34;5031570;28;20568;-72
2024/01/06 03:54:20;;;;;;;30.63;19.63;;;;;;;8.11;88.91;99331.53;5031787;28;20200;-72
2024/01/06 03:56:47;;;;;;;31.47;19.67;;;;;;;8.11;88.42;99330.69;5031738;28;20193;-72
2024/01/06 03:59:13;;;;;;;23.77;18.17;;;;;;;8.14;88.60;99339.09;5031679;28;20209;-71
2024/01/06 04:01:40;;;;;;;33.73;20.33;;;;;;;8.17;87.88;99336.06;5031867;28;20197;-71
2024/01/06 04:04:08;;;;;;;27.77;19.07;;;;;;;8.19;87.75;99339.34;5031327;28;20204;-71
2024/01/06 04:06:36;;;;;;;28.17;18.83;;;;;;;8.22;88.30;99335.56;5031758;28;20201;-71
2024/01/06 04:09:03;;;;;;;29.87;18.20;;;;;;;8.25;88.05;99338.63;5031591;28;20582;-71
2024/01/06 04:11:30;;;;;;;28.20;17.93;;;;;;;8.25;87.92;99341.28;5031368;28;20197;-71
2024/01/06 04:13:56;;;;;;;29.77;19.20;;;;;;;8.23;87.81;99343.31;5031274;28;20195;-72
2024/01/06 04:16:23;;;;;;;27.97;17.73;;;;;;;8.25;87.80;99351.06;5031693;28;20270;-71
2024/01/06 04:18:50;;;;;;;27.40;18.03;;;;;;;8.25;87.75;99349.22;5031470;28;20254;-71
2024/01/06 04:21:16;;;;;;;30.37;17.90;;;;;;;8.27;87.23;99333.16;5031299;28;20327;-70
2024/01/06 04:23:44;;;;;;;24.80;17.27;;;;;;;8.25;87.36;99328.06;5031271;28;20622;-70
2024/01/06 04:26:11;;;;;;;29.07;17.63;;;;;;;8.30;87.69;99335.44;5031533;28;20247;-70
2024/01/06 04:28:38;;;;;;;24.20;17.60;;;;;;;8.26;86.84;99342.13;5031199;28;20193;-70
2024/01/06 04:31:04;;;;;;;26.63;17.73;;;;;;;8.24;87.20;99336.16;5031766;28;20217;-71
2024/01/06 04:33:32;;;;;;;25.50;18.57;;;;;;;8.22;86.74;99322.31;5031054;28;20741;-71
2024/01/06 04:36:01;;;;;;;29.17;19.10;;;;;;;8.24;86.88;99331.72;5031531;28;20300;-71
2024/01/06 04:38:28;;;;;;;28.80;18.73;;;;;;;8.25;86.51;99329.91;5014866;28;20281;-70
2024/01/06 04:40:56;;;;;;;25.67;19.23;;;;;;;8.18;86.60;99336.91;5011715;28;20205;-71
2024/01/06 04:43:23;;;;;;;27.73;17.90;;;;;;;8.15;86.86;99343.38;5011288;28;20198;-71
2024/01/06 04:45:51;;;;;;;27.07;18.57;;;;;;;8.13;86.95;99341.91;5011819;28;20198;-71
2024/01/06 04:48:17;;;;;;;27.10;18.73;;;;;;;8.11;87.25;99351.84;5011716;28;20238;-72
2024/01/06 04:50:44;;;;;;;32.57;20.13;;;;;;;8.00;86.46;99318.75;5011501;28;20257;-72
2024/01/06 04:53:11;;;;;;;28.97;20.00;;;;;;;8.16;86.71;99345.00;5015804;28;20198;-71
2024/01/06 04:55:38;;;;;;;32.23;20.43;;;;;;;8.14;86.01;99351.50;5015015;28;20193;-72
2024/01/06 04:58:06;;;;;;;25.20;17.77;;;;;;;8.06;86.00;99354.22;5015027;28;20197;-72
2024/01/06 05:00:35;;;;;;;27.60;17.37;;;;;;;8.07;86.33;99355.88;5015550;28;20234;-72
2024/01/06 05:03:02;;;;;;;22.97;16.20;;;;;;;8.03;85.86;99358.06;5015254;28;20293;-72
2024/01/06 05:05:29;;;;;;;24.57;16.23;;;;;;;7.98;86.91;99341.09;5014899;28;20259;-72
2024/01/06 05:07:56;;;;;;;28.63;17.70;;;;;;;8.07;86.83;99334.72;5015117;28;20244;-71
2024/01/06 05:10:22;;;;;;;27.80;17.63;;;;;;;8.12;85.83;99340.25;5014661;28;20771;-72
2024/01/06 05:12:49;;;;;;;24.53;16.83;;;;;;;8.06;85.73;99348.94;5015391;28;20289;-71
2024/01/06 05:15:17;;;;;;;32.30;19.97;;;;;;;7.91;85.98;99341.00;5014890;28;20205;-72
2024/01/06 05:17:44;;;;;;;36.67;19.40;;;;;;;7.87;87.12;99330.97;5014840;28;20232;-70
2024/01/06 05:20:11;;;;;;;26.93;19.27;;;;;;;7.93;87.56;99343.47;5014536;28;20197;-71
2024/01/06 05:22:38;;;;;;;31.10;21.27;;;;;;;7.97;87.24;99350.03;5014676;28;20259;-71
2024/01/06 05:25:05;;;;;;;35.00;22.63;;;;;;;7.87;86.24;99341.56;5014522;28;20202;-71
2024/01/06 05:27:32;;;;;;;30.70;20.77;;;;;;;7.77;87.49;99341.00;5014453;28;20730;-71
2024/01/06 05:29:58;;;;;;;31.50;20.33;;;;;;;7.80;87.93;99345.94;5014743;28;20604;-71
2024/01/06 05:32:26;;;;;;;27.97;19.50;;;;;;;7.80;86.67;99353.88;5014158;28;20256;-71
2024/01/06 05:34:53;;;;;;;27.93;18.80;;;;;;;7.64;87.40;99359.31;5014319;28;20201;-71
2024/01/06 05:37:20;;;;;;;30.30;18.37;;;;;;;7.63;88.61;99363.78;5021112;28;20193;-71
2024/01/06 05:39:47;;;;;;;32.13;18.73;;;;;;;7.64;87.64;99359.31;5034195;28;20200;-70
2024/01/06 05:42:14;;;;;;;31.80;19.13;;;;;;;7.72;88.02;99367.19;5034044;28;20673;-70
2024/01/06 05:44:41;;;;;;;33.77;19.93;;;;;;;7.73;87.94;99374.09;5034097;28;20251;-71
2024/01/06 05:47:08;;;;;;;33.33;20.30;;;;;;;7.71;88.52;99360.22;5033928;28;20197;-71
2024/01/06 05:49:36;;;;;;;27.97;19.77;;;;;;;7.76;87.61;99365.81;5033675;28;20724;-71
2024/01/06 05:52:04;;;;;;;31.57;19.63;;;;;;;7.71;87.50;99365.50;5034145;28;20204;-71
2024/01/06 05:54:31;;;;;;;30.13;19.93;;;;;;;7.42;88.26;99366.31;5034316;28;20714;-70
2024/01/06 05:56:57;;;;;;;27.87;20.07;;;;;;;7.44;89.07;99363.47;5033904;28;20201;-70
2024/01/06 05:59:24;;;;;;;30.63;20.20;;;;;;;7.45;88.60;99359.84;5033555;28;20197;-69
2024/01/06 06:01:52;;;;;;;30.47;20.77;;;;;;;7.35;88.74;99348.72;5033601;28;20257;-70
2024/01/06 06:04:19;;;;;;;35.87;21.17;;;;;;;7.38;90.02;99356.25;5032280;28;20656;-70
2024/01/06 06:06:47;;;;;;;26.03;19.07;;;;;;;7.37;89.88;99354.63;5034114;28;20221;-69
2024/01/06 06:09:15;;;;;;;25.23;18.50;;;;;;;7.35;90.05;99349.50;5033737;28;20193;-70
2024/01/06 06:11:42;;;;;;;25.03;18.97;;;;;;;7.35;89.48;99348.72;5033988;28;20243;-71
2024/01/06 06:14:09;;;;;;;27.57;17.87;;;;;;;7.41;89.84;99340.88;5033344;28;20575;-71
2024/01/06 06:16:37;;;;;;;27.53;19.20;;;;;;;7.43;89.59;99343.34;5033312;28;20572;-70
2024/01/06 06:19:04;;;;;;;29.87;19.27;;;;;;;7.47;89.35;99342.00;5033687;28;20200;-70
2024/01/06 06:21:31;;;;;;;28.97;18.40;;;;;;;7.50;88.95;99338.97;5033221;28;20391;-70
2024/01/06 06:23:59;;;;;;;27.43;19.50;;;;;;;7.53;90.16;99331.53;5033791;28;20197;-71
2024/01/06 06:26:25;;;;;;;25.57;18.93;;;;;;;7.61;89.22;99338.53;5033547;28;20263;-71
2024/01/06 06:28:52;;;;;;;26.17;18.23;;;;;;;7.70;88.74;99321.59;5033153;28;20225;-71
2024/01/06 06:31:19;;;;;;;21.43;17.03;;;;;;;7.65;87.83;99316.03;5031467;28;20688;-71
2024/01/06 06:33:46;;;;;;;24.50;15.90;;;;;;;7.81;88.01;99315.84;5031627;28;20338;-71
2024/01/06 06:36:12;;;;;;;24.97;17.77;;;;;;;7.86;88.00;99313.47;5032507;28;20278;-71
2024/01/06 06:38:39;;;;;;;53.80;40.83;;;;;;;7.77;87.48;99299.53;5032270;28;20200;-72
2024/01/06 06:41:07;;;;;;;40.30;29.73;;;;;;;7.87;88.53;99308.00;5032875;28;20728;-77
2024/01/06 06:43:34;;;;;;;28.93;20.37;;;;;;;7.97;87.96;99305.09;5033121;28;20201;-76
2024/01/06 06:46:00;;;;;;;23.17;17.10;;;;;;;8.06;87.50;99309.25;5032767;28;20243;-74
2024/01/06 06:48:27;;;;;;;26.47;16.97;;;;;;;8.12;87.18;99319.94;5032842;28;20633;-78
2024/01/06 06:50:54;;;;;;;29.33;17.17;;;;;;;8.17;85.95;99324.69;5032586;28;20279;-76
2024/01/06 06:53:21;;;;;;;31.77;16.90;;;;;;;8.21;86.36;99316.19;5033115;28;20201;-74
2024/01/06 06:55:48;;;;;;;27.43;17.60;;;;;;;8.26;86.27;99311.19;5033040;28;20251;-75
2024/01/06 06:58:17;;;;;;;23.53;16.73;;;;;;;8.27;84.62;99314.66;5033184;28;20209;-74
2024/01/06 07:00:43;;;;;;;37.47;20.27;;;;;;;8.16;84.94;99307.13;5032187;28;20205;-78
2024/01/06 07:03:10;;;;;;;29.43;19.43;;;;;;;8.22;85.86;99323.16;5032708;28;20208;-77
2024/01/06 07:05:38;;;;;;;30.47;19.17;;;;;;;8.26;86.60;99324.44;5032929;28;20193;-76
2024/01/06 07:08:06;;;;;;;25.13;17.67;;;;;;;8.32;86.18;99306.97;5032965;28;20300;-75
2024/01/06 07:10:32;;;;;;;24.17;15.93;;;;;;;8.33;85.80;99303.34;5032701;28;20279;-79
2024/01/06 07:12:59;;;;;;;32.57;19.97;;;;;;;8.31;85.80;99292.94;5032572;28;20661;-77
2024/01/06 07:15:27;;;;;;;32.73;19.17;;;;;;;8.35;86.36;99285.44;5032434;28;20193;-75
2024/01/06 07:17:54;;;;;;;24.70;16.87;;;;;;;8.39;86.98;99281.41;5032834;28;20189;-75
2024/01/06 07:20:21;;;;;;;26.10;17.37;;;;;;;8.52;85.74;99311.47;5032503;28;20197;-75
2024/01/06 07:22:47;;;;;;;33.97;21.40;;;;;;;8.59;85.45;99314.19;5032687;28;20198;-73
2024/01/06 07:25:14;;;;;;;33.53;22.93;;;;;;;8.62;85.41;99321.78;5032088;28;20193;-72
2024/01/06 07:27:41;;;;;;;42.80;25.53;;;;;;;8.72;85.89;99319.63;5032292;28;20671;-72
2024/01/06 07:30:08;;;;;;;41.13;21.97;;;;;;;8.77;85.15;99311.94;5032406;28;20228;-74
2024/01/06 07:32:37;;;;;;;42.03;26.90;;;;;;;8.78;84.80;99324.19;5032747;28;20232;-73
2024/01/06 07:35:04;;;;;;;35.47;23.10;;;;;;;8.91;86.62;99313.72;5032430;28;20197;-77
2024/01/06 07:37:30;;;;;;;37.83;22.77;;;;;;;8.83;84.27;99312.00;5026834;28;20189;-71
2024/01/06 07:39:57;;;;;;;34.63;22.50;;;;;;;8.82;85.15;99310.34;5023445;28;20256;-72
2024/01/06 07:42:24;;;;;;;43.90;27.30;;;;;;;8.78;84.94;99303.00;5032227;28;20284;-72
2024/01/06 07:44:51;;;;;;;39.57;25.60;;;;;;;8.82;86.45;99298.97;5031928;28;20251;-70
2024/01/06 07:47:18;;;;;;;39.77;26.47;;;;;;;8.84;85.48;99313.66;5031591;28;20255;-71
2024/01/06 07:49:46;;;;;;;47.57;27.13;;;;;;;8.76;84.63;99326.19;5032242;28;20621;-69
2024/01/06 07:52:13;;;;;;;51.57;29.73;;;;;;;8.63;84.42;99326.06;5032036;28;20589;-71
2024/01/06 07:54:40;;;;;;;43.50;28.33;;;;;;;8.56;85.02;99311.91;5031675;28;20292;-69
2024/01/06 07:57:06;;;;;;;39.87;26.50;;;;;;;8.51;85.34;99311.66;5031356;28;20197;-73
2024/01/06 07:59:33;;;;;;;35.80;24.90;;;;;;;8.42;85.70;99312.78;5030347;28;20193;-73
2024/01/06 08:02:00;;;;;;;35.80;22.93;;;;;;;8.39;85.81;99310.50;5029623;28;20231;-72
2024/01/06 08:04:26;;;;;;;30.43;21.37;;;;;;;8.42;86.07;99318.09;5021664;28;20189;-73
2024/01/06 08:06:55;;;;;;;40.93;26.50;;;;;;;8.38;86.09;99290.34;5020767;28;20198;-73
2024/01/06 08:09:23;;;;;;;38.93;24.80;;;;;;;8.54;85.96;99293.56;5011217;28;20201;-73
2024/01/06 08:11:50;;;;;;;31.67;24.30;;;;;;;8.69;86.43;99293.50;5011966;28;20227;-73
2024/01/06 08:14:17;;;;;;;25.70;19.03;;;;;;;8.86;87.04;99300.22;5014707;28;20267;-72
2024/01/06 08:16:44;;;;;;;27.03;18.13;;;;;;;9.31;88.15;99299.78;5020243;28;20243;-73
2024/01/06 08:19:11;;;;;;;26.03;19.27;;;;;;;9.67;87.16;99308.38;5021837;28;20205;-73
2024/01/06 08:21:37;;;;;;;38.80;21.47;;;;;;;9.83;84.82;99321.34;5020186;28;20197;-73
2024/01/06 08:24:06;;;;;;;33.10;19.93;;;;;;;9.70;81.70;99310.66;5022112;28;20624;-73
2024/01/06 08:26:33;;;;;;;32.77;20.17;;;;;;;9.77;81.59;99333.53;5023398;28;20274;-73
2024/01/06 08:29:00;;;;;;;35.57;20.73;;;;;;;9.81;80.09;99334.00;5035229;28;20241;-74
2024/01/06 08:31:26;;;;;;;25.30;17.10;;;;;;;9.69;80.25;99324.94;5034896;28;20209;-74
2024/01/06 08:33:53;;;;;;;31.03;19.07;;;;;;;9.60;80.38;99336.72;5016256;28;20201;-77
2024/01/06 08:36:20;;;;;;;31.27;19.73;;;;;;;9.54;81.41;99334.81;5017979;28;20202;-73
2024/01/06 08:38:47;;;;;;;51.33;18.77;;;;;;;9.44;80.72;99321.09;5030186;28;20696;-74
2024/01/06 08:41:15;;;;;;;44.30;20.53;;;;;;;9.34;81.14;99316.13;5024095;28;20226;-75
2024/01/06 08:43:41;;;;;;;27.57;19.10;;;;;;;9.24;81.52;99298.91;5035088;28;20194;-72
2024/01/06 08:46:08;;;;;;;29.27;20.27;;;;;;;9.09;82.00;99290.22;5034788;28;20680;-73
2024/01/06 08:48:35;;;;;;;31.13;20.00;;;;;;;9.16;83.39;99291.09;5031688;28;20231;-73
2024/01/06 08:51:02;;;;;;;32.07;22.03;;;;;;;9.33;83.14;99293.28;5023966;28;20294;-72
2024/01/06 08:53:28;;;;;;;31.53;20.10;;;;;;;9.48;82.67;99306.44;5026640;28;20723;-73
2024/01/06 08:55:55;;;;;;;36.97;20.60;;;;;;;9.54;81.19;99308.31;5031617;28;20189;-73
2024/01/06 08:58:23;;;;;;;31.90;20.50;;;;;;;9.46;81.20;99303.97;5028979;28;20193;-72
2024/01/06 09:00:50;;;;;;;33.00;20.80;;;;;;;9.49;82.58;99305.41;5030761;28;20247;-71
2024/01/06 09:03:17;;;;;;;32.87;20.63;;;;;;;9.67;81.56;99301.25;5033324;28;20546;-71
2024/01/06 09:05:44;;;;;;;26.43;18.70;;;;;;;9.75;79.59;99297.63;5028736;28;20222;-71
2024/01/06 09:08:11;;;;;;;30.10;16.90;;;;;;;9.75;79.27;99298.44;5025257;28;20204;-71
2024/01/06 09:10:37;;;;;;;17.83;13.73;;;;;;;9.77;78.94;99295.59;5024498;28;20218;-71
2024/01/06 09:13:04;;;;;;;16.33;13.40;;;;;;;9.84;78.20;99284.00;5022251;28;20251;-71
2024/01/06 09:15:33;;;;;;;18.57;14.80;;;;;;;9.93;77.80;99285.47;5024448;28;20577;-71
2024/01/06 09:18:00;;;;;;;28.80;17.47;;;;;;;9.95;78.29;99278.16;5014598;28;20194;-70
2024/01/06 09:20:27;;;;;;;30.17;19.03;;;;;;;10.07;78.65;99278.44;5014955;28;20620;-70
2024/01/06 09:22:54;;;;;;;35.20;22.27;;;;;;;10.20;78.10;99281.13;5014661;28;20556;-70
2024/01/06 09:25:23;;;;;;;41.03;24.23;;;;;;;10.20;77.60;99275.81;5014231;28;20198;-70
2024/01/06 09:27:51;;;;;;;68.40;34.97;;;;;;;10.33;77.73;99267.91;5014421;28;20248;-71
2024/01/06 09:30:17;;;;;;;40.80;22.97;;;;;;;10.39;77.44;99270.59;5014516;28;20322;-72
2024/01/06 09:32:45;;;;;;;25.60;19.90;;;;;;;10.51;76.99;99258.34;5013764;28;20226;-70
2024/01/06 09:35:12;;;;;;;31.17;21.27;;;;;;;10.71;76.54;99274.34;5014384;28;20206;-70
2024/01/06 09:37:40;;;;;;;33.77;21.73;;;;;;;10.83;75.76;99273.53;5023729;28;20276;-70
2024/01/06 09:40:10;;;;;;;35.83;20.17;;;;;;;10.99;75.90;99257.19;5033932;28;20200;-72
2024/01/06 09:42:37;;;;;;;36.23;19.83;;;;;;;11.11;74.53;99259.25;5034313;28;20195;-72
2024/01/06 09:45:04;;;;;;;30.63;19.93;;;;;;;11.23;74.26;99258.41;5025426;28;20666;-70
2024/01/06 09:47:35;;;;;;;42.13;20.07;;;;;;;11.35;73.44;99245.31;5027238;28;20194;-68
2024/01/06 09:50:09;;;;;;;43.57;20.23;;;;;;;11.46;73.60;99242.84;5021445;28;20187;-71
2024/01/06 09:52:40;;;;;;;51.53;20.57;;;;;;;11.57;73.06;99239.56;5023390;28;20203;-70
2024/01/06 09:55:12;;;;;;;31.70;19.87;;;;;;;11.69;72.14;99229.09;5016445;28;20668;-70
2024/01/06 09:57:40;;;;;;;35.17;21.33;;;;;;;11.77;71.15;99228.88;5013635;28;20248;-69
2024/01/06 10:00:09;;;;;;;32.80;20.80;;;;;;;11.83;71.78;99218.19;5023532;28;20196;-70
2024/01/06 10:02:35;;;;;;;36.40;22.77;;;;;;;11.97;71.00;99218.97;5033263;28;20207;-72
2024/01/06 10:05:04;;;;;;;37.00;22.90;;;;;;;12.16;70.46;99221.53;5033236;28;20639;-70
2024/01/06 10:07:31;;;;;;;37.10;23.20;;;;;;;12.16;70.08;99207.44;5033664;28;20257;-71
2024/01/06 10:09:57;;;;;;;35.63;21.33;;;;;;;12.19;69.38;99210.47;5033255;28;20203;-70
2024/01/06 10:12:25;;;;;;;46.83;27.70;;;;;;;12.18;70.22;99206.19;5033659;28;20307;-71
2024/01/06 10:14:51;;;;;;;55.30;25.80;;;;;;;12.13;70.26;99191.88;5033495;28;20192;-70
2024/01/06 10:17:19;;;;;;;38.87;22.13;;;;;;;12.08;70.70;99189.03;5033064;28;20246;-70
2024/01/06 10:19:46;;;;;;;56.90;21.90;;;;;;;12.30;74.01;99177.84;5032976;28;20685;-72
2024/01/06 10:22:14;;;;;;;40.03;22.00;;;;;;;12.25;72.92;99180.31;5027534;28;20197;-70
2024/01/06 10:24:41;;;;;;;44.27;22.77;;;;;;;12.33;71.49;99176.59;5013261;28;20264;-70
2024/01/06 10:27:08;;;;;;;36.37;22.73;;;;;;;12.38;70.43;99174.94;5025604;28;20200;-69
2024/01/06 10:29:36;;;;;;;33.77;23.97;;;;;;;12.43;69.98;99176.94;5033385;28;20315;-67
2024/01/06 10:32:03;;;;;;;39.73;24.00;;;;;;;12.45;69.02;99174.88;5032640;28;20224;-67
2024/01/06 10:34:32;;;;;;;40.20;25.80;;;;;;;12.35;68.67;99158.53;5032440;28;20195;-68
2024/01/06 10:37:00;;;;;;;51.67;26.77;;;;;;;12.37;69.99;99167.94;5028671;28;20217;-68
2024/01/06 10:39:29;;;;;;;53.67;26.07;;;;;;;12.35;69.07;99169.19;5012465;28;20667;-69
2024/01/06 10:41:56;;;;;;;43.67;25.33;;;;;;;12.33;69.58;99171.28;5012799;28;20659;-68
2024/01/06 10:44:24;;;;;;;40.50;24.07;;;;;;;12.27;70.23;99166.78;5012812;28;20197;-68
2024/01/06 10:46:52;;;;;;;46.60;25.23;;;;;;;12.22;70.38;99156.78;5013077;28;20206;-69
2024/01/06 10:49:21;;;;;;;37.37;21.83;;;;;;;12.25;70.50;99143.03;5011631;28;20198;-67
2024/01/06 10:51:50;;;;;;;35.27;22.63;;;;;;;12.30;70.96;99137.06;5012075;28;20236;-68
2024/01/06 10:54:18;;;;;;;32.33;20.37;;;;;;;12.36;70.93;99137.03;5012246;28;20195;-69
2024/01/06 10:56:48;;;;;;;36.60;21.63;;;;;;;12.41;70.21;99126.53;5012398;28;20260;-68
2024/01/06 10:59:16;;;;;;;32.97;21.60;;;;;;;12.46;70.35;99129.34;5012527;28;20420;-68
2024/01/06 11:01:45;;;;;;;49.30;24.50;;;;;;;12.51;70.47;99116.22;5012837;28;20247;-69
2024/01/06 11:04:13;;;;;;;36.13;20.90;;;;;;;12.53;70.53;99114.13;5012631;28;20624;-69
2024/01/06 11:06:40;;;;;;;36.67;20.17;;;;;;;12.55;71.58;99101.44;5012821;28;20289;-68
2024/01/06 11:09:12;;;;;;;36.47;18.90;;;;;;;12.59;71.62;99107.97;5012690;28;20661;-69
2024/01/06 11:11:40;;;;;;;35.80;20.50;;;;;;;12.66;71.47;99103.38;5012371;28;20679;-69
2024/01/06 11:14:21;;;;;;;28.07;16.10;;;;;;;12.69;71.62;99097.59;5012648;28;20363;-68
2024/01/06 11:16:47;;;;;;;27.23;15.93;;;;;;;12.55;72.33;99084.63;5012823;28;20231;-69
2024/01/06 11:19:43;;;;;;;26.63;16.33;;;;;;;12.76;72.48;99093.03;5012697;28;20190;-69
2024/01/06 11:22:25;;;;;;;28.17;15.23;;;;;;;12.89;72.08;99095.56;5012362;28;20193;-69
2024/01/06 11:24:53;;;;;;;24.17;16.40;;;;;;;13.08;72.02;99086.59;5012373;28;20669;-69